sensor_id;sensor_type;location;lat;lon;timestamp;P1;durP1;ratioP1;P2;durP2;ratioP2
20705;SDS011;10514;49.468;11.044;2024-03-07T00:02:08;19.03;;;11.53;;
20705;SDS011;10514;49.468;11.044;2024-03-07T00:04:34;17.63;;;10.60;;
20705;SDS011;10514;49.468;11.044;2024-03-07T00:07:01;17.57;;;11.17;;
20705;SDS011;10514;49.468;11.044;2024-03-07T00:09:28;17.07;;;11.33;;
20705;SDS011;10514;49.468;11.044;2024-03-07T00:11:56;17.97;;;11.33;;
20705;SDS011;10514;49.468;11.044;2024-03-07T00:14:21;17.90;;;11.07;;
20705;SDS011;10514;49.468;11.044;2024-03-07T00:16:51;17.30;;;11.10;;
20705;SDS011;10514;49.468;11.044;2024-03-07T00:19:26;17.07;;;10.93;;
20705;SDS011;10514;49.468;11.044;2024-03-07T00:21:55;17.67;;;10.60;;
20705;SDS011;10514;49.468;11.044;2024-03-07T00:24:22;17.40;;;9.97;;
20705;SDS011;10514;49.468;11.044;2024-03-07T00:26:48;15.90;;;9.97;;
20705;SDS011;10514;49.468;11.044;2024-03-07T00:29:17;15.70;;;10.23;;
20705;SDS011;10514;49.468;11.044;2024-03-07T00:31:44;15.03;;;9.90;;
20705;SDS011;10514;49.468;11.044;2024-03-07T00:34:13;18.83;;;11.10;;
20705;SDS011;10514;49.468;11.044;2024-03-07T00:36:41;17.57;;;10.57;;
20705;SDS011;10514;49.468;11.044;2024-03-07T00:39:07;13.53;;;9.40;;
20705;SDS011;10514;49.468;11.044;2024-03-07T00:41:39;14.00;;;9.10;;
20705;SDS011;10514;49.468;11.044;2024-03-07T00:44:05;16.07;;;9.80;;
20705;SDS011;10514;49.468;11.044;2024-03-07T00:46:31;14.40;;;9.40;;
20705;SDS011;10514;49.468;11.044;2024-03-07T00:48:57;14.63;;;9.00;;
20705;SDS011;10514;49.468;11.044;2024-03-07T00:51:22;14.67;;;9.53;;
20705;SDS011;10514;49.468;11.044;2024-03-07T00:53:48;14.70;;;9.20;;
20705;SDS011;10514;49.468;11.044;2024-03-07T00:56:13;16.83;;;10.07;;
20705;SDS011;10514;49.468;11.044;2024-03-07T00:58:39;14.97;;;8.97;;
20705;SDS011;10514;49.468;11.044;2024-03-07T01:01:04;13.80;;;8.83;;
20705;SDS011;10514;49.468;11.044;2024-03-07T01:03:30;14.30;;;9.13;;
20705;SDS011;10514;49.468;11.044;2024-03-07T01:05:55;15.73;;;8.77;;
20705;SDS011;10514;49.468;11.044;2024-03-07T01:08:21;13.77;;;9.07;;
20705;SDS011;10514;49.468;11.044;2024-03-07T01:10:46;15.57;;;9.40;;
20705;SDS011;10514;49.468;11.044;2024-03-07T01:13:13;14.97;;;9.37;;
20705;SDS011;10514;49.468;11.044;2024-03-07T01:15:44;15.07;;;8.70;;
20705;SDS011;10514;49.468;11.044;2024-03-07T01:18:10;15.97;;;9.77;;
20705;SDS011;10514;49.468;11.044;2024-03-07T01:20:35;14.37;;;9.20;;
20705;SDS011;10514;49.468;11.044;2024-03-07T01:23:01;13.63;;;8.93;;
20705;SDS011;10514;49.468;11.044;2024-03-07T01:25:26;14.63;;;9.37;;
20705;SDS011;10514;49.468;11.044;2024-03-07T01:27:52;13.37;;;9.10;;
20705;SDS011;10514;49.468;11.044;2024-03-07T01:30:17;15.77;;;9.57;;
20705;SDS011;10514;49.468;11.044;2024-03-07T01:32:43;13.30;;;8.83;;
20705;SDS011;10514;49.468;11.044;2024-03-07T01:35:08;14.00;;;9.23;;
20705;SDS011;10514;49.468;11.044;2024-03-07T01:37:34;16.03;;;9.23;;
20705;SDS011;10514;49.468;11.044;2024-03-07T01:40:00;13.43;;;8.77;;
20705;SDS011;10514;49.468;11.044;2024-03-07T01:42:26;13.00;;;8.50;;
20705;SDS011;10514;49.468;11.044;2024-03-07T01:44:52;14.07;;;9.20;;
20705;SDS011;10514;49.468;11.044;2024-03-07T01:47:17;14.77;;;9.70;;
20705;SDS011;10514;49.468;11.044;2024-03-07T01:49:43;13.63;;;8.73;;
20705;SDS011;10514;49.468;11.044;2024-03-07T01:52:09;12.83;;;8.60;;
20705;SDS011;10514;49.468;11.044;2024-03-07T01:54:36;13.80;;;9.13;;
20705;SDS011;10514;49.468;11.044;2024-03-07T01:57:02;15.67;;;10.00;;
20705;SDS011;10514;49.468;11.044;2024-03-07T01:59:29;14.23;;;9.83;;
20705;SDS011;10514;49.468;11.044;2024-03-07T02:01:55;13.10;;;8.83;;
20705;SDS011;10514;49.468;11.044;2024-03-07T02:04:21;14.93;;;10.27;;
20705;SDS011;10514;49.468;11.044;2024-03-07T02:06:48;13.37;;;9.03;;
20705;SDS011;10514;49.468;11.044;2024-03-07T02:09:14;13.33;;;8.87;;
20705;SDS011;10514;49.468;11.044;2024-03-07T02:11:40;14.33;;;9.30;;
20705;SDS011;10514;49.468;11.044;2024-03-07T02:14:06;16.67;;;9.33;;
20705;SDS011;10514;49.468;11.044;2024-03-07T02:16:31;13.23;;;8.87;;
20705;SDS011;10514;49.468;11.044;2024-03-07T02:18:57;15.47;;;8.97;;
20705;SDS011;10514;49.468;11.044;2024-03-07T02:21:24;14.20;;;9.23;;
20705;SDS011;10514;49.468;11.044;2024-03-07T02:23:50;13.27;;;9.23;;
20705;SDS011;10514;49.468;11.044;2024-03-07T02:26:16;12.90;;;8.90;;
20705;SDS011;10514;49.468;11.044;2024-03-07T02:28:41;14.63;;;9.70;;
20705;SDS011;10514;49.468;11.044;2024-03-07T02:31:07;12.10;;;8.07;;
20705;SDS011;10514;49.468;11.044;2024-03-07T02:33:32;14.93;;;9.63;;
20705;SDS011;10514;49.468;11.044;2024-03-07T02:35:58;12.93;;;8.83;;
20705;SDS011;10514;49.468;11.044;2024-03-07T02:38:23;14.07;;;8.93;;
20705;SDS011;10514;49.468;11.044;2024-03-07T02:40:49;15.43;;;9.80;;
20705;SDS011;10514;49.468;11.044;2024-03-07T02:43:14;14.77;;;9.87;;
20705;SDS011;10514;49.468;11.044;2024-03-07T02:45:40;12.77;;;8.57;;
20705;SDS011;10514;49.468;11.044;2024-03-07T02:48:06;13.00;;;8.57;;
20705;SDS011;10514;49.468;11.044;2024-03-07T02:50:34;13.37;;;8.83;;
20705;SDS011;10514;49.468;11.044;2024-03-07T02:53:02;12.50;;;8.07;;
20705;SDS011;10514;49.468;11.044;2024-03-07T02:55:28;13.07;;;8.07;;
20705;SDS011;10514;49.468;11.044;2024-03-07T02:57:54;12.57;;;8.13;;
20705;SDS011;10514;49.468;11.044;2024-03-07T03:00:22;12.90;;;8.70;;
20705;SDS011;10514;49.468;11.044;2024-03-07T03:02:51;11.23;;;8.07;;
20705;SDS011;10514;49.468;11.044;2024-03-07T03:05:17;11.17;;;7.23;;
20705;SDS011;10514;49.468;11.044;2024-03-07T03:07:43;12.97;;;8.20;;
20705;SDS011;10514;49.468;11.044;2024-03-07T03:10:18;11.90;;;7.97;;
20705;SDS011;10514;49.468;11.044;2024-03-07T03:12:51;13.30;;;7.83;;
20705;SDS011;10514;49.468;11.044;2024-03-07T03:15:18;13.07;;;8.23;;
20705;SDS011;10514;49.468;11.044;2024-03-07T03:17:45;11.77;;;7.77;;
20705;SDS011;10514;49.468;11.044;2024-03-07T03:20:11;11.40;;;8.03;;
20705;SDS011;10514;49.468;11.044;2024-03-07T03:22:49;10.10;;;7.43;;
20705;SDS011;10514;49.468;11.044;2024-03-07T03:25:18;12.17;;;7.30;;
20705;SDS011;10514;49.468;11.044;2024-03-07T03:27:45;11.13;;;8.13;;
20705;SDS011;10514;49.468;11.044;2024-03-07T03:30:12;11.77;;;7.40;;
20705;SDS011;10514;49.468;11.044;2024-03-07T03:32:39;11.73;;;7.57;;
20705;SDS011;10514;49.468;11.044;2024-03-07T03:35:07;9.87;;;6.50;;
20705;SDS011;10514;49.468;11.044;2024-03-07T03:37:38;10.70;;;6.78;;
20705;SDS011;10514;49.468;11.044;2024-03-07T03:40:05;10.90;;;7.03;;
20705;SDS011;10514;49.468;11.044;2024-03-07T03:42:31;11.90;;;7.80;;
20705;SDS011;10514;49.468;11.044;2024-03-07T03:44:57;12.27;;;7.90;;
20705;SDS011;10514;49.468;11.044;2024-03-07T03:47:22;11.57;;;7.37;;
20705;SDS011;10514;49.468;11.044;2024-03-07T03:49:48;10.60;;;7.00;;
20705;SDS011;10514;49.468;11.044;2024-03-07T03:52:13;11.57;;;7.00;;
20705;SDS011;10514;49.468;11.044;2024-03-07T03:54:39;11.50;;;6.90;;
20705;SDS011;10514;49.468;11.044;2024-03-07T03:57:04;10.30;;;7.10;;
20705;SDS011;10514;49.468;11.044;2024-03-07T03:59:30;11.53;;;7.43;;
20705;SDS011;10514;49.468;11.044;2024-03-07T04:01:56;11.30;;;7.33;;
20705;SDS011;10514;49.468;11.044;2024-03-07T04:04:22;10.83;;;7.13;;
20705;SDS011;10514;49.468;11.044;2024-03-07T04:06:47;12.00;;;7.40;;
20705;SDS011;10514;49.468;11.044;2024-03-07T04:09:13;12.53;;;7.70;;
20705;SDS011;10514;49.468;11.044;2024-03-07T04:11:40;11.37;;;7.37;;
20705;SDS011;10514;49.468;11.044;2024-03-07T04:14:05;10.70;;;6.67;;
20705;SDS011;10514;49.468;11.044;2024-03-07T04:16:31;12.10;;;7.70;;
20705;SDS011;10514;49.468;11.044;2024-03-07T04:18:56;11.80;;;7.60;;
20705;SDS011;10514;49.468;11.044;2024-03-07T04:21:22;11.47;;;7.67;;
20705;SDS011;10514;49.468;11.044;2024-03-07T04:23:47;12.30;;;7.87;;
20705;SDS011;10514;49.468;11.044;2024-03-07T04:26:13;11.70;;;7.07;;
20705;SDS011;10514;49.468;11.044;2024-03-07T04:28:38;11.30;;;7.10;;
20705;SDS011;10514;49.468;11.044;2024-03-07T04:31:04;11.30;;;7.63;;
20705;SDS011;10514;49.468;11.044;2024-03-07T04:33:29;10.47;;;7.23;;
20705;SDS011;10514;49.468;11.044;2024-03-07T04:35:55;10.40;;;7.13;;
20705;SDS011;10514;49.468;11.044;2024-03-07T04:38:21;11.77;;;7.23;;
20705;SDS011;10514;49.468;11.044;2024-03-07T04:40:46;12.37;;;7.53;;
20705;SDS011;10514;49.468;11.044;2024-03-07T04:43:12;11.07;;;6.83;;
20705;SDS011;10514;49.468;11.044;2024-03-07T04:45:37;12.20;;;7.40;;
20705;SDS011;10514;49.468;11.044;2024-03-07T04:48:03;11.37;;;7.20;;
20705;SDS011;10514;49.468;11.044;2024-03-07T04:50:30;11.07;;;6.87;;
20705;SDS011;10514;49.468;11.044;2024-03-07T04:52:56;12.60;;;7.60;;
20705;SDS011;10514;49.468;11.044;2024-03-07T04:55:21;11.50;;;7.80;;
20705;SDS011;10514;49.468;11.044;2024-03-07T04:57:47;12.80;;;7.60;;
20705;SDS011;10514;49.468;11.044;2024-03-07T05:00:13;12.20;;;7.23;;
20705;SDS011;10514;49.468;11.044;2024-03-07T05:02:42;11.77;;;7.87;;
20705;SDS011;10514;49.468;11.044;2024-03-07T05:05:09;13.27;;;7.93;;
20705;SDS011;10514;49.468;11.044;2024-03-07T05:07:35;11.50;;;7.20;;
20705;SDS011;10514;49.468;11.044;2024-03-07T05:10:01;12.97;;;8.60;;
20705;SDS011;10514;49.468;11.044;2024-03-07T05:12:29;11.43;;;7.47;;
20705;SDS011;10514;49.468;11.044;2024-03-07T05:14:55;11.70;;;7.87;;
20705;SDS011;10514;49.468;11.044;2024-03-07T05:17:20;13.47;;;8.30;;
20705;SDS011;10514;49.468;11.044;2024-03-07T05:19:47;11.83;;;7.33;;
20705;SDS011;10514;49.468;11.044;2024-03-07T05:22:14;11.77;;;7.00;;
20705;SDS011;10514;49.468;11.044;2024-03-07T05:24:41;11.80;;;8.07;;
20705;SDS011;10514;49.468;11.044;2024-03-07T05:27:10;14.20;;;9.03;;
20705;SDS011;10514;49.468;11.044;2024-03-07T05:29:36;16.63;;;8.87;;
20705;SDS011;10514;49.468;11.044;2024-03-07T05:32:19;14.73;;;8.70;;
20705;SDS011;10514;49.468;11.044;2024-03-07T05:34:46;18.00;;;9.77;;
20705;SDS011;10514;49.468;11.044;2024-03-07T05:37:11;13.13;;;8.50;;
20705;SDS011;10514;49.468;11.044;2024-03-07T05:39:38;13.90;;;8.27;;
20705;SDS011;10514;49.468;11.044;2024-03-07T05:42:04;13.33;;;8.30;;
20705;SDS011;10514;49.468;11.044;2024-03-07T05:44:29;13.20;;;8.13;;
20705;SDS011;10514;49.468;11.044;2024-03-07T05:46:55;14.93;;;8.43;;
20705;SDS011;10514;49.468;11.044;2024-03-07T05:49:20;12.97;;;8.10;;
20705;SDS011;10514;49.468;11.044;2024-03-07T05:51:46;12.83;;;8.07;;
20705;SDS011;10514;49.468;11.044;2024-03-07T05:54:12;12.90;;;8.13;;
20705;SDS011;10514;49.468;11.044;2024-03-07T05:56:38;12.80;;;7.80;;
20705;SDS011;10514;49.468;11.044;2024-03-07T05:59:04;12.07;;;7.80;;
20705;SDS011;10514;49.468;11.044;2024-03-07T06:01:32;12.77;;;8.57;;
20705;SDS011;10514;49.468;11.044;2024-03-07T06:04:02;13.70;;;8.40;;
20705;SDS011;10514;49.468;11.044;2024-03-07T06:06:35;12.50;;;8.17;;
20705;SDS011;10514;49.468;11.044;2024-03-07T06:09:02;11.90;;;7.87;;
20705;SDS011;10514;49.468;11.044;2024-03-07T06:11:38;13.40;;;8.67;;
20705;SDS011;10514;49.468;11.044;2024-03-07T06:14:07;13.07;;;8.47;;
20705;SDS011;10514;49.468;11.044;2024-03-07T06:16:33;14.33;;;8.83;;
20705;SDS011;10514;49.468;11.044;2024-03-07T06:19:01;15.07;;;8.40;;
20705;SDS011;10514;49.468;11.044;2024-03-07T06:21:28;13.80;;;8.27;;
20705;SDS011;10514;49.468;11.044;2024-03-07T06:23:57;15.07;;;9.57;;
20705;SDS011;10514;49.468;11.044;2024-03-07T06:26:32;14.53;;;9.07;;
20705;SDS011;10514;49.468;11.044;2024-03-07T06:29:17;13.87;;;8.80;;
20705;SDS011;10514;49.468;11.044;2024-03-07T06:31:43;12.17;;;8.73;;
20705;SDS011;10514;49.468;11.044;2024-03-07T06:34:12;14.80;;;9.63;;
20705;SDS011;10514;49.468;11.044;2024-03-07T06:36:38;15.27;;;9.03;;
20705;SDS011;10514;49.468;11.044;2024-03-07T06:39:04;13.47;;;8.70;;
20705;SDS011;10514;49.468;11.044;2024-03-07T06:41:35;13.93;;;9.17;;
20705;SDS011;10514;49.468;11.044;2024-03-07T06:44:01;13.00;;;8.47;;
20705;SDS011;10514;49.468;11.044;2024-03-07T06:46:27;13.77;;;9.20;;
20705;SDS011;10514;49.468;11.044;2024-03-07T06:48:53;14.60;;;9.30;;
20705;SDS011;10514;49.468;11.044;2024-03-07T06:51:19;11.73;;;8.17;;
20705;SDS011;10514;49.468;11.044;2024-03-07T06:53:44;14.73;;;9.37;;
20705;SDS011;10514;49.468;11.044;2024-03-07T06:56:11;16.40;;;9.60;;
20705;SDS011;10514;49.468;11.044;2024-03-07T06:58:37;12.60;;;8.27;;
20705;SDS011;10514;49.468;11.044;2024-03-07T07:01:03;14.97;;;8.73;;
20705;SDS011;10514;49.468;11.044;2024-03-07T07:03:32;14.20;;;8.77;;
20705;SDS011;10514;49.468;11.044;2024-03-07T07:05:57;14.03;;;9.53;;
20705;SDS011;10514;49.468;11.044;2024-03-07T07:08:23;18.10;;;10.13;;
20705;SDS011;10514;49.468;11.044;2024-03-07T07:10:49;13.70;;;9.20;;
20705;SDS011;10514;49.468;11.044;2024-03-07T07:13:15;16.30;;;9.97;;
20705;SDS011;10514;49.468;11.044;2024-03-07T07:15:40;15.37;;;9.43;;
20705;SDS011;10514;49.468;11.044;2024-03-07T07:18:06;15.27;;;9.30;;
20705;SDS011;10514;49.468;11.044;2024-03-07T07:20:32;13.10;;;8.83;;
20705;SDS011;10514;49.468;11.044;2024-03-07T07:22:59;13.40;;;8.77;;
20705;SDS011;10514;49.468;11.044;2024-03-07T07:25:27;14.53;;;9.43;;
20705;SDS011;10514;49.468;11.044;2024-03-07T07:27:53;14.83;;;9.63;;
20705;SDS011;10514;49.468;11.044;2024-03-07T07:30:19;14.67;;;10.10;;
20705;SDS011;10514;49.468;11.044;2024-03-07T07:32:50;15.10;;;9.98;;
20705;SDS011;10514;49.468;11.044;2024-03-07T07:35:16;14.97;;;9.83;;
20705;SDS011;10514;49.468;11.044;2024-03-07T07:37:42;16.07;;;10.17;;
20705;SDS011;10514;49.468;11.044;2024-03-07T07:40:15;12.52;;;9.02;;
20705;SDS011;10514;49.468;11.044;2024-03-07T07:42:46;13.18;;;9.07;;
20705;SDS011;10514;49.468;11.044;2024-03-07T07:45:12;18.20;;;10.07;;
20705;SDS011;10514;49.468;11.044;2024-03-07T07:47:43;15.07;;;9.77;;
20705;SDS011;10514;49.468;11.044;2024-03-07T07:50:11;15.35;;;9.70;;
20705;SDS011;10514;49.468;11.044;2024-03-07T07:55:18;16.07;;;11.07;;
20705;SDS011;10514;49.468;11.044;2024-03-07T07:57:57;15.00;;;10.07;;
20705;SDS011;10514;49.468;11.044;2024-03-07T08:00:25;16.35;;;9.90;;
20705;SDS011;10514;49.468;11.044;2024-03-07T08:02:54;15.07;;;10.23;;
20705;SDS011;10514;49.468;11.044;2024-03-07T08:05:22;13.65;;;9.90;;
20705;SDS011;10514;49.468;11.044;2024-03-07T08:07:52;14.10;;;10.13;;
20705;SDS011;10514;49.468;11.044;2024-03-07T08:10:20;14.50;;;10.15;;
20705;SDS011;10514;49.468;11.044;2024-03-07T08:12:48;14.63;;;10.75;;
20705;SDS011;10514;49.468;11.044;2024-03-07T08:15:14;16.95;;;11.30;;
20705;SDS011;10514;49.468;11.044;2024-03-07T08:17:41;16.05;;;10.93;;
20705;SDS011;10514;49.468;11.044;2024-03-07T08:20:19;16.30;;;11.70;;
20705;SDS011;10514;49.468;11.044;2024-03-07T08:22:46;17.23;;;11.98;;
20705;SDS011;10514;49.468;11.044;2024-03-07T08:25:14;16.35;;;11.52;;
20705;SDS011;10514;49.468;11.044;2024-03-07T08:27:40;15.32;;;11.10;;
20705;SDS011;10514;49.468;11.044;2024-03-07T08:30:07;16.30;;;11.57;;
20705;SDS011;10514;49.468;11.044;2024-03-07T08:32:38;16.02;;;11.93;;
20705;SDS011;10514;49.468;11.044;2024-03-07T08:35:09;15.18;;;10.82;;
20705;SDS011;10514;49.468;11.044;2024-03-07T08:37:36;17.73;;;12.07;;
20705;SDS011;10514;49.468;11.044;2024-03-07T08:40:03;14.18;;;10.90;;
20705;SDS011;10514;49.468;11.044;2024-03-07T08:42:33;22.38;;;15.13;;
20705;SDS011;10514;49.468;11.044;2024-03-07T08:45:02;16.15;;;12.10;;
20705;SDS011;10514;49.468;11.044;2024-03-07T08:47:32;16.83;;;12.43;;
20705;SDS011;10514;49.468;11.044;2024-03-07T08:49:58;15.77;;;10.88;;
20705;SDS011;10514;49.468;11.044;2024-03-07T08:52:25;14.77;;;10.95;;
20705;SDS011;10514;49.468;11.044;2024-03-07T08:54:50;13.77;;;9.85;;
20705;SDS011;10514;49.468;11.044;2024-03-07T08:57:16;17.05;;;11.15;;
20705;SDS011;10514;49.468;11.044;2024-03-07T08:59:43;14.32;;;10.10;;
20705;SDS011;10514;49.468;11.044;2024-03-07T09:02:08;14.70;;;10.48;;
20705;SDS011;10514;49.468;11.044;2024-03-07T09:04:35;13.95;;;10.07;;
20705;SDS011;10514;49.468;11.044;2024-03-07T09:07:01;15.50;;;10.63;;
20705;SDS011;10514;49.468;11.044;2024-03-07T09:09:26;18.08;;;12.65;;
20705;SDS011;10514;49.468;11.044;2024-03-07T09:11:52;14.25;;;10.52;;
20705;SDS011;10514;49.468;11.044;2024-03-07T09:14:17;18.08;;;13.02;;
20705;SDS011;10514;49.468;11.044;2024-03-07T09:16:43;13.27;;;9.70;;
20705;SDS011;10514;49.468;11.044;2024-03-07T09:19:09;14.20;;;10.60;;
20705;SDS011;10514;49.468;11.044;2024-03-07T09:21:38;16.77;;;11.27;;
20705;SDS011;10514;49.468;11.044;2024-03-07T09:24:05;15.45;;;10.68;;
20705;SDS011;10514;49.468;11.044;2024-03-07T09:26:32;15.60;;;10.60;;
20705;SDS011;10514;49.468;11.044;2024-03-07T09:28:58;16.00;;;9.93;;
20705;SDS011;10514;49.468;11.044;2024-03-07T09:31:30;15.03;;;9.83;;
20705;SDS011;10514;49.468;11.044;2024-03-07T09:33:57;13.10;;;9.47;;
20705;SDS011;10514;49.468;11.044;2024-03-07T09:36:23;13.70;;;9.47;;
20705;SDS011;10514;49.468;11.044;2024-03-07T09:38:51;12.43;;;8.97;;
20705;SDS011;10514;49.468;11.044;2024-03-07T09:41:18;13.13;;;9.33;;
20705;SDS011;10514;49.468;11.044;2024-03-07T09:43:48;15.20;;;10.10;;
20705;SDS011;10514;49.468;11.044;2024-03-07T09:46:18;16.60;;;9.63;;
20705;SDS011;10514;49.468;11.044;2024-03-07T09:48:46;13.83;;;9.60;;
20705;SDS011;10514;49.468;11.044;2024-03-07T09:51:12;13.47;;;9.33;;
20705;SDS011;10514;49.468;11.044;2024-03-07T09:53:42;14.23;;;9.57;;
20705;SDS011;10514;49.468;11.044;2024-03-07T09:56:10;14.53;;;9.63;;
20705;SDS011;10514;49.468;11.044;2024-03-07T09:58:38;14.00;;;9.80;;
20705;SDS011;10514;49.468;11.044;2024-03-07T10:01:05;14.00;;;9.13;;
20705;SDS011;10514;49.468;11.044;2024-03-07T10:03:35;14.03;;;9.27;;
20705;SDS011;10514;49.468;11.044;2024-03-07T10:06:02;13.67;;;9.20;;
20705;SDS011;10514;49.468;11.044;2024-03-07T10:08:29;12.97;;;9.43;;
20705;SDS011;10514;49.468;11.044;2024-03-07T10:10:55;13.80;;;9.87;;
20705;SDS011;10514;49.468;11.044;2024-03-07T10:13:21;12.80;;;9.33;;
20705;SDS011;10514;49.468;11.044;2024-03-07T10:15:47;13.17;;;9.30;;
20705;SDS011;10514;49.468;11.044;2024-03-07T10:18:14;15.47;;;9.83;;
20705;SDS011;10514;49.468;11.044;2024-03-07T10:20:41;11.77;;;8.53;;
20705;SDS011;10514;49.468;11.044;2024-03-07T10:23:07;12.77;;;8.90;;
20705;SDS011;10514;49.468;11.044;2024-03-07T10:25:33;11.50;;;8.77;;
20705;SDS011;10514;49.468;11.044;2024-03-07T10:27:59;16.40;;;8.77;;
20705;SDS011;10514;49.468;11.044;2024-03-07T10:30:25;12.48;;;8.48;;
20705;SDS011;10514;49.468;11.044;2024-03-07T10:32:57;12.90;;;8.48;;
20705;SDS011;10514;49.468;11.044;2024-03-07T10:35:24;11.73;;;7.90;;
20705;SDS011;10514;49.468;11.044;2024-03-07T10:37:52;12.70;;;8.77;;
20705;SDS011;10514;49.468;11.044;2024-03-07T10:40:25;12.85;;;8.82;;
20705;SDS011;10514;49.468;11.044;2024-03-07T10:42:52;14.07;;;9.10;;
20705;SDS011;10514;49.468;11.044;2024-03-07T10:45:21;11.77;;;8.43;;
20705;SDS011;10514;49.468;11.044;2024-03-07T10:47:49;11.73;;;8.23;;
20705;SDS011;10514;49.468;11.044;2024-03-07T10:53:10;11.53;;;8.00;;
20705;SDS011;10514;49.468;11.044;2024-03-07T10:55:53;11.97;;;8.43;;
20705;SDS011;10514;49.468;11.044;2024-03-07T11:01:24;12.63;;;8.13;;
20705;SDS011;10514;49.468;11.044;2024-03-07T11:06:22;11.57;;;8.03;;
20705;SDS011;10514;49.468;11.044;2024-03-07T11:08:49;12.93;;;8.33;;
20705;SDS011;10514;49.468;11.044;2024-03-07T11:11:16;12.17;;;8.43;;
20705;SDS011;10514;49.468;11.044;2024-03-07T11:13:42;13.97;;;8.87;;
20705;SDS011;10514;49.468;11.044;2024-03-07T11:16:12;12.90;;;8.67;;
20705;SDS011;10514;49.468;11.044;2024-03-07T11:18:39;11.70;;;8.27;;
20705;SDS011;10514;49.468;11.044;2024-03-07T11:21:05;13.70;;;8.60;;
20705;SDS011;10514;49.468;11.044;2024-03-07T11:23:32;11.93;;;8.13;;
20705;SDS011;10514;49.468;11.044;2024-03-07T11:26:09;12.43;;;8.80;;
20705;SDS011;10514;49.468;11.044;2024-03-07T11:28:39;11.20;;;8.83;;
20705;SDS011;10514;49.468;11.044;2024-03-07T11:31:12;12.02;;;7.68;;
20705;SDS011;10514;49.468;11.044;2024-03-07T11:36:42;13.13;;;8.37;;
20705;SDS011;10514;49.468;11.044;2024-03-07T11:42:22;11.97;;;8.53;;
20705;SDS011;10514;49.468;11.044;2024-03-07T11:44:52;10.83;;;7.70;;
20705;SDS011;10514;49.468;11.044;2024-03-07T11:47:21;11.90;;;8.13;;
20705;SDS011;10514;49.468;11.044;2024-03-07T11:49:49;13.10;;;8.43;;
20705;SDS011;10514;49.468;11.044;2024-03-07T11:52:18;13.03;;;8.03;;
20705;SDS011;10514;49.468;11.044;2024-03-07T11:54:44;12.73;;;8.23;;
20705;SDS011;10514;49.468;11.044;2024-03-07T11:57:17;11.70;;;8.13;;
20705;SDS011;10514;49.468;11.044;2024-03-07T11:59:44;12.77;;;8.37;;
20705;SDS011;10514;49.468;11.044;2024-03-07T12:02:12;10.10;;;7.23;;
20705;SDS011;10514;49.468;11.044;2024-03-07T12:04:40;10.60;;;7.33;;
20705;SDS011;10514;49.468;11.044;2024-03-07T12:07:06;13.47;;;7.93;;
20705;SDS011;10514;49.468;11.044;2024-03-07T12:09:31;9.87;;;7.33;;
20705;SDS011;10514;49.468;11.044;2024-03-07T12:12:00;12.40;;;8.40;;
20705;SDS011;10514;49.468;11.044;2024-03-07T12:14:27;10.60;;;7.53;;
20705;SDS011;10514;49.468;11.044;2024-03-07T12:16:53;11.30;;;8.27;;
20705;SDS011;10514;49.468;11.044;2024-03-07T12:19:18;12.17;;;8.50;;
20705;SDS011;10514;49.468;11.044;2024-03-07T12:21:46;13.10;;;8.37;;
20705;SDS011;10514;49.468;11.044;2024-03-07T12:24:12;11.60;;;7.50;;
20705;SDS011;10514;49.468;11.044;2024-03-07T12:26:38;10.57;;;7.40;;
20705;SDS011;10514;49.468;11.044;2024-03-07T12:29:08;11.43;;;7.47;;
20705;SDS011;10514;49.468;11.044;2024-03-07T12:31:36;10.60;;;7.43;;
20705;SDS011;10514;49.468;11.044;2024-03-07T12:34:03;12.33;;;7.97;;
20705;SDS011;10514;49.468;11.044;2024-03-07T12:36:29;12.80;;;8.07;;
20705;SDS011;10514;49.468;11.044;2024-03-07T12:39:03;11.03;;;8.07;;
20705;SDS011;10514;49.468;11.044;2024-03-07T12:41:34;10.73;;;7.47;;
20705;SDS011;10514;49.468;11.044;2024-03-07T12:44:00;13.23;;;8.37;;
20705;SDS011;10514;49.468;11.044;2024-03-07T12:46:26;15.80;;;10.57;;
20705;SDS011;10514;49.468;11.044;2024-03-07T12:48:55;11.70;;;8.07;;
20705;SDS011;10514;49.468;11.044;2024-03-07T12:51:23;11.13;;;7.60;;
20705;SDS011;10514;49.468;11.044;2024-03-07T12:53:49;10.80;;;7.80;;
20705;SDS011;10514;49.468;11.044;2024-03-07T12:56:15;11.23;;;8.20;;
20705;SDS011;10514;49.468;11.044;2024-03-07T12:58:43;12.60;;;8.43;;
20705;SDS011;10514;49.468;11.044;2024-03-07T13:01:09;12.10;;;8.47;;
20705;SDS011;10514;49.468;11.044;2024-03-07T13:03:36;13.23;;;9.03;;
20705;SDS011;10514;49.468;11.044;2024-03-07T13:06:01;12.47;;;8.10;;
20705;SDS011;10514;49.468;11.044;2024-03-07T13:08:29;12.77;;;7.47;;
20705;SDS011;10514;49.468;11.044;2024-03-07T13:10:55;10.90;;;8.03;;
20705;SDS011;10514;49.468;11.044;2024-03-07T13:13:21;11.17;;;6.83;;
20705;SDS011;10514;49.468;11.044;2024-03-07T13:15:47;12.20;;;7.47;;
20705;SDS011;10514;49.468;11.044;2024-03-07T13:18:13;12.03;;;7.37;;
20705;SDS011;10514;49.468;11.044;2024-03-07T13:20:39;10.67;;;7.70;;
20705;SDS011;10514;49.468;11.044;2024-03-07T13:23:08;9.53;;;6.90;;
20705;SDS011;10514;49.468;11.044;2024-03-07T13:25:33;11.53;;;7.70;;
20705;SDS011;10514;49.468;11.044;2024-03-07T13:30:32;10.93;;;7.33;;
20705;SDS011;10514;49.468;11.044;2024-03-07T13:33:01;12.03;;;7.40;;
20705;SDS011;10514;49.468;11.044;2024-03-07T13:35:27;11.23;;;8.00;;
20705;SDS011;10514;49.468;11.044;2024-03-07T13:37:53;10.60;;;7.00;;
20705;SDS011;10514;49.468;11.044;2024-03-07T13:40:20;11.67;;;8.03;;
20705;SDS011;10514;49.468;11.044;2024-03-07T13:45:16;9.57;;;6.27;;
20705;SDS011;10514;49.468;11.044;2024-03-07T13:47:46;9.80;;;5.80;;
20705;SDS011;10514;49.468;11.044;2024-03-07T13:50:17;9.47;;;6.73;;
20705;SDS011;10514;49.468;11.044;2024-03-07T13:52:47;9.13;;;6.17;;
20705;SDS011;10514;49.468;11.044;2024-03-07T13:55:40;10.20;;;6.47;;
20705;SDS011;10514;49.468;11.044;2024-03-07T14:15:19;11.60;;;7.77;;
20705;SDS011;10514;49.468;11.044;2024-03-07T14:29:47;13.97;;;8.83;;
20705;SDS011;10514;49.468;11.044;2024-03-07T14:32:14;14.90;;;9.13;;
20705;SDS011;10514;49.468;11.044;2024-03-07T14:34:49;12.37;;;8.17;;
20705;SDS011;10514;49.468;11.044;2024-03-07T14:37:35;13.93;;;9.03;;
20705;SDS011;10514;49.468;11.044;2024-03-07T14:40:08;13.30;;;9.17;;
20705;SDS011;10514;49.468;11.044;2024-03-07T14:42:41;14.20;;;9.60;;
20705;SDS011;10514;49.468;11.044;2024-03-07T14:45:11;14.80;;;9.40;;
20705;SDS011;10514;49.468;11.044;2024-03-07T14:47:41;12.40;;;8.50;;
20705;SDS011;10514;49.468;11.044;2024-03-07T14:50:07;12.43;;;8.50;;
20705;SDS011;10514;49.468;11.044;2024-03-07T14:52:37;13.53;;;8.60;;
20705;SDS011;10514;49.468;11.044;2024-03-07T14:55:06;13.40;;;9.33;;
20705;SDS011;10514;49.468;11.044;2024-03-07T14:57:33;13.23;;;8.57;;
20705;SDS011;10514;49.468;11.044;2024-03-07T14:59:58;13.70;;;8.70;;
20705;SDS011;10514;49.468;11.044;2024-03-07T15:02:24;14.57;;;8.90;;
20705;SDS011;10514;49.468;11.044;2024-03-07T15:04:51;12.10;;;7.53;;
20705;SDS011;10514;49.468;11.044;2024-03-07T15:07:17;14.63;;;9.00;;
20705;SDS011;10514;49.468;11.044;2024-03-07T15:09:48;15.82;;;9.07;;
20705;SDS011;10514;49.468;11.044;2024-03-07T15:12:14;14.80;;;9.30;;
20705;SDS011;10514;49.468;11.044;2024-03-07T15:14:40;14.27;;;9.50;;